Time,TemperatureF,DewpointF,PressureIn,WindDirection,WindDirectionDegrees,WindSpeedMPH,WindSpeedGustMPH,Humidity,HourlyPrecipIn,Conditions,Clouds,dailyrainin,SoftwareType,DateUTC
2013-04-05 00:03:00,65.0,-99.9,-100.00,NE,48,8.0,8.0,-999,-99.99,,,-99.99,,2013-04-05 06:03:00,
2013-04-05 00:12:00,65.0,-99.9,-100.00,NE,48,8.0,8.0,-999,-99.99,,,-99.99,,2013-04-05 06:12:00,
2013-04-05 01:23:00,64.0,-99.9,-100.00,SSW,209,0.0,0.0,-999,-99.99,,,-99.99,,2013-04-05 07:23:00,
2013-04-05 01:32:00,64.0,-99.9,-100.00,SSW,209,0.0,0.0,-999,-99.99,,,-99.99,,2013-04-05 07:32:00,
2013-04-05 02:03:00,62.0,-99.9,-100.00,SW,220,4.0,5.0,-999,-99.99,,,-99.99,,2013-04-05 08:03:00,
2013-04-05 02:13:00,62.0,-99.9,-100.00,SW,220,4.0,5.0,-999,-99.99,,,-99.99,,2013-04-05 08:13:00,
2013-04-05 02:30:00,62.0,-99.9,-100.00,SSW,213,6.0,6.0,-999,-99.99,,,-99.99,,2013-04-05 08:30:00,
2013-04-05 03:00:00,62.0,-99.9,-100.00,North,357,3.0,5.0,-999,-99.99,,,-99.99,,2013-04-05 09:00:00,
2013-04-05 03:22:00,62.0,-99.9,-100.00,SSW,213,6.0,6.0,-999,-99.99,,,-99.99,,2013-04-05 09:22:00,
2013-04-05 03:53:00,62.0,-99.9,-100.00,North,357,3.0,5.0,-999,-99.99,,,-99.99,,2013-04-05 09:53:00,
2013-04-05 04:00:00,61.0,-99.9,-100.00,SW,227,4.0,5.0,-999,-99.99,,,-99.99,,2013-04-05 10:00:00,
2013-04-05 04:54:00,61.0,-99.9,-100.00,SW,227,4.0,5.0,-999,-99.99,,,-99.99,,2013-04-05 10:54:00,
2013-04-05 05:23:00,62.0,-99.9,-100.00,NE,46,3.0,3.0,-999,-99.99,,,-99.99,,2013-04-05 11:23:00,
2013-04-05 05:33:00,62.0,-99.9,-100.00,NE,46,3.0,3.0,-999,-99.99,,,-99.99,,2013-04-05 11:33:00,
2013-04-05 05:40:00,64.0,-99.9,-100.00,SW,227,2.0,3.0,-999,-99.99,,,-99.99,,2013-04-05 11:40:00,
2013-04-05 06:23:00,64.0,-99.9,-100.00,SW,227,2.0,3.0,-999,-99.99,,,-99.99,,2013-04-05 12:23:00,
2013-04-05 06:32:00,64.0,-99.9,-100.00,SW,227,2.0,3.0,-999,-99.99,,,-99.99,,2013-04-05 12:32:00,
2013-04-05 07:30:00,68.0,-99.9,-100.00,SSW,211,4.0,4.0,-999,-99.99,,,-99.99,,2013-04-05 13:30:00,
2013-04-05 07:32:00,64.0,-99.9,-100.00,WSW,256,2.0,3.0,-999,-99.99,,,-99.99,,2013-04-05 13:32:00,
2013-04-05 07:43:00,64.0,-99.9,-100.00,WSW,256,2.0,3.0,-999,-99.99,,,-99.99,,2013-04-05 13:43:00,
2013-04-05 08:23:00,68.0,-99.9,-100.00,SSW,211,4.0,4.0,-999,-99.99,,,-99.99,,2013-04-05 14:23:00,
2013-04-05 08:40:00,70.0,-99.9,-100.00,SW,226,3.0,4.0,-999,-99.99,,,-99.99,,2013-04-05 14:40:00,
2013-04-05 09:02:00,69.0,-99.9,-100.00,South,191,2.0,3.0,-999,-99.99,,,-99.99,,2013-04-05 15:02:00,
2013-04-05 09:13:00,69.0,-99.9,-100.00,South,191,2.0,3.0,-999,-99.99,,,-99.99,,2013-04-05 15:13:00,
2013-04-05 09:24:00,70.0,-99.9,-100.00,SW,226,3.0,4.0,-999,-99.99,,,-99.99,,2013-04-05 15:24:00,
2013-04-05 09:34:00,70.0,-99.9,-100.00,SW,226,3.0,4.0,-999,-99.99,,,-99.99,,2013-04-05 15:34:00,
2013-04-05 10:40:00,80.0,-99.9,-100.00,SSW,204,6.0,7.0,-999,-99.99,,,-99.99,,2013-04-05 16:40:00,
2013-04-05 11:24:00,80.0,-99.9,-100.00,SSW,204,6.0,7.0,-999,-99.99,,,-99.99,,2013-04-05 17:24:00,
2013-04-05 11:33:00,80.0,-99.9,-100.00,SSW,204,6.0,7.0,-999,-99.99,,,-99.99,,2013-04-05 17:33:00,
2013-04-05 12:10:00,83.0,-99.9,-100.00,NE,55,4.0,7.0,-999,-99.99,,,-99.99,,2013-04-05 18:10:00,
2013-04-05 12:53:00,83.0,-99.9,-100.00,NE,55,4.0,7.0,-999,-99.99,,,-99.99,,2013-04-05 18:53:00,
2013-04-05 13:03:00,83.0,-99.9,-100.00,NE,55,4.0,7.0,-999,-99.99,,,-99.99,,2013-04-05 19:03:00,
2013-04-05 13:34:00,85.0,-99.9,-100.00,SSE,161,4.0,7.0,-999,-99.99,,,-99.99,,2013-04-05 19:34:00,
2013-04-05 13:43:00,85.0,-99.9,-100.00,SSE,161,4.0,7.0,-999,-99.99,,,-99.99,,2013-04-05 19:43:00,
2013-04-05 13:53:00,85.0,-99.9,-100.00,SSE,161,4.0,7.0,-999,-99.99,,,-99.99,,2013-04-05 19:53:00,
2013-04-05 14:33:00,85.0,-99.9,-100.00,SW,221,4.0,6.0,-999,-99.99,,,-99.99,,2013-04-05 20:33:00,
2013-04-05 14:43:00,85.0,-99.9,-100.00,SW,221,4.0,6.0,-999,-99.99,,,-99.99,,2013-04-05 20:43:00,
2013-04-05 16:00:00,85.0,-99.9,-100.00,WSW,248,3.0,5.0,-999,-99.99,,,-99.99,,2013-04-05 22:00:00,
2013-04-05 16:34:00,85.0,-99.9,-100.00,SW,227,8.0,9.0,-999,-99.99,,,-99.99,,2013-04-05 22:34:00,
2013-04-05 16:44:00,85.0,-99.9,-100.00,SW,227,8.0,9.0,-999,-99.99,,,-99.99,,2013-04-05 22:44:00,
2013-04-05 16:53:00,85.0,-99.9,-100.00,WSW,248,3.0,5.0,-999,-99.99,,,-99.99,,2013-04-05 22:53:00,
2013-04-05 17:23:00,87.0,-99.9,-100.00,WSW,248,3.0,6.0,-999,-99.99,,,-99.99,,2013-04-05 23:23:00,
2013-04-05 17:30:00,86.0,-99.9,-100.00,NW,318,2.0,7.0,-999,-99.99,,,-99.99,,2013-04-05 23:30:00,
2013-04-05 17:33:00,87.0,-99.9,-100.00,SW,236,5.0,7.0,-999,-99.99,,,-99.99,,2013-04-05 23:33:00,
2013-04-05 17:43:00,87.0,-99.9,-100.00,SW,236,5.0,7.0,-999,-99.99,,,-99.99,,2013-04-05 23:43:00,
2013-04-05 18:23:00,86.0,-99.9,-100.00,NW,318,2.0,7.0,-999,-99.99,,,-99.99,,2013-04-06 00:23:00,
2013-04-05 18:40:00,85.0,-99.9,-100.00,WSW,252,4.0,6.0,-999,-99.99,,,-99.99,,2013-04-06 00:40:00,
2013-04-05 19:03:00,85.0,-99.9,-100.00,WSW,245,3.0,7.0,-999,-99.99,,,-99.99,,2013-04-06 01:03:00,
2013-04-05 19:13:00,85.0,-99.9,-100.00,WSW,245,3.0,7.0,-999,-99.99,,,-99.99,,2013-04-06 01:13:00,
2013-04-05 19:23:00,85.0,-99.9,-100.00,WSW,252,4.0,6.0,-999,-99.99,,,-99.99,,2013-04-06 01:23:00,
2013-04-05 19:33:00,85.0,-99.9,-100.00,WSW,252,4.0,6.0,-999,-99.99,,,-99.99,,2013-04-06 01:33:00,
2013-04-05 20:03:00,83.0,-99.9,-100.00,WSW,254,5.0,7.0,-999,-99.99,,,-99.99,,2013-04-06 02:03:00,
2013-04-05 20:13:00,83.0,-99.9,-100.00,WSW,254,5.0,7.0,-999,-99.99,,,-99.99,,2013-04-06 02:13:00,
2013-04-05 20:23:00,83.0,-99.9,-100.00,WSW,254,5.0,7.0,-999,-99.99,,,-99.99,,2013-04-06 02:23:00,
2013-04-05 22:05:00,81.0,-99.9,-100.00,SW,217,6.0,6.0,-999,-99.99,,,-99.99,,2013-04-06 04:05:00,
2013-04-05 22:14:00,81.0,-99.9,-100.00,SW,217,6.0,6.0,-999,-99.99,,,-99.99,,2013-04-06 04:14:00,
2013-04-05 22:23:00,81.0,-99.9,-100.00,SW,217,6.0,6.0,-999,-99.99,,,-99.99,,2013-04-06 04:23:00,
2013-04-05 22:33:00,80.0,-99.9,-100.00,WSW,249,3.0,4.0,-999,-99.99,,,-99.99,,2013-04-06 04:33:00,
2013-04-05 22:43:00,80.0,-99.9,-100.00,WSW,249,3.0,4.0,-999,-99.99,,,-99.99,,2013-04-06 04:43:00,
2013-04-05 22:53:00,80.0,-99.9,-100.00,WSW,249,3.0,4.0,-999,-99.99,,,-99.99,,2013-04-06 04:53:00,
2013-04-05 23:10:00,77.0,-99.9,-100.00,NW,305,2.0,6.0,-999,-99.99,,,-99.99,,2013-04-06 05:10:00,
2013-04-05 23:53:00,77.0,-99.9,-100.00,NW,305,2.0,6.0,-999,-99.99,,,-99.99,,2013-04-06 05:53:00,